createdAt,value
2024-02-29T00:01:11.902Z,52.00
2024-02-29T00:03:39.792Z,52.50
2024-02-29T00:06:07.259Z,52.47
2024-02-29T00:08:34.643Z,52.20
2024-02-29T00:11:02.005Z,51.74
2024-02-29T00:13:29.325Z,53.02
2024-02-29T00:15:58.740Z,53.65
2024-02-29T00:18:26.532Z,52.40
2024-02-29T00:20:53.845Z,51.81
2024-02-29T00:23:21.013Z,51.86
2024-02-29T00:25:48.322Z,51.75
2024-02-29T00:28:15.705Z,50.76
2024-02-29T00:30:43.225Z,52.78
2024-02-29T00:33:10.806Z,53.60
2024-02-29T00:35:38.000Z,53.59
2024-02-29T00:38:05.128Z,53.84
2024-02-29T00:40:34.705Z,51.91
2024-02-29T00:43:02.079Z,52.52
2024-02-29T00:45:30.852Z,53.43
2024-02-29T00:48:00.758Z,54.86
2024-02-29T00:50:41.242Z,52.65
2024-02-29T00:56:06.814Z,53.22
2024-02-29T00:58:36.740Z,52.95
2024-02-29T01:01:05.055Z,53.81
2024-02-29T01:03:35.149Z,53.89
2024-02-29T01:06:03.402Z,54.33
2024-02-29T01:08:32.406Z,54.78
2024-02-29T01:11:01.220Z,54.29
2024-02-29T01:13:29.486Z,54.40
2024-02-29T01:15:57.828Z,53.86
2024-02-29T01:18:25.609Z,54.12
2024-02-29T01:20:54.352Z,54.26
2024-02-29T01:23:22.231Z,54.48
2024-02-29T01:25:49.927Z,54.00
2024-02-29T01:28:18.228Z,54.14
2024-02-29T01:30:47.150Z,53.61
2024-02-29T01:33:15.485Z,54.71
2024-02-29T01:35:43.952Z,54.43
2024-02-29T01:38:12.124Z,52.53
2024-02-29T01:40:40.062Z,51.11
2024-02-29T01:43:07.869Z,52.95
2024-02-29T01:45:36.602Z,53.31
2024-02-29T01:48:04.624Z,53.81
2024-02-29T01:50:33.055Z,54.52
2024-02-29T01:53:00.894Z,54.15
2024-02-29T01:55:28.981Z,54.46
2024-02-29T01:57:57.445Z,54.99
2024-02-29T02:00:26.051Z,57.06
2024-02-29T02:02:54.322Z,54.74
2024-02-29T02:05:25.116Z,55.15
2024-02-29T02:07:53.303Z,54.18
2024-02-29T02:10:21.418Z,54.98
2024-02-29T02:12:49.678Z,55.10
2024-02-29T02:15:21.060Z,55.34
2024-02-29T02:17:49.059Z,54.54
2024-02-29T02:20:16.963Z,55.12
2024-02-29T02:22:45.374Z,53.86
2024-02-29T02:25:14.752Z,54.46
2024-02-29T02:27:42.068Z,54.85
2024-02-29T02:30:09.877Z,55.99
2024-02-29T02:32:40.934Z,54.71
2024-02-29T02:35:08.469Z,54.74
2024-02-29T02:37:35.519Z,54.78
2024-02-29T02:40:02.755Z,55.54
2024-02-29T02:42:30.458Z,54.78
2024-02-29T02:44:57.536Z,54.11
2024-02-29T02:47:25.052Z,54.90
2024-02-29T02:49:52.401Z,53.50
2024-02-29T02:52:19.644Z,53.42
2024-02-29T02:54:47.061Z,55.38
2024-02-29T02:57:14.443Z,55.93
2024-02-29T02:59:41.841Z,56.03
2024-02-29T03:02:09.279Z,55.97
2024-02-29T03:04:37.499Z,55.78
2024-02-29T03:07:04.848Z,56.27
2024-02-29T03:09:32.549Z,55.10
2024-02-29T03:11:59.766Z,55.34
2024-02-29T03:14:27.221Z,55.47
2024-02-29T03:16:54.908Z,55.50
2024-02-29T03:19:22.463Z,54.72
2024-02-29T03:21:50.324Z,56.20
2024-02-29T03:24:17.672Z,56.14
2024-02-29T03:26:45.946Z,55.70
2024-02-29T03:29:16.295Z,55.98
2024-02-29T03:31:44.176Z,54.90
2024-02-29T03:34:12.844Z,55.37
2024-02-29T03:36:41.190Z,55.31
2024-02-29T03:39:12.499Z,56.05
2024-02-29T03:41:43.307Z,55.21
2024-02-29T03:44:10.731Z,54.66
2024-02-29T03:46:38.113Z,56.50
2024-02-29T03:49:05.677Z,54.90
2024-02-29T03:51:33.444Z,54.89
2024-02-29T03:54:00.788Z,55.15
2024-02-29T03:56:28.331Z,54.32
2024-02-29T03:58:55.608Z,54.21
2024-02-29T04:01:22.795Z,54.37
2024-02-29T04:03:50.094Z,55.21
2024-02-29T04:06:17.509Z,56.10
2024-02-29T04:08:45.127Z,56.46
2024-02-29T04:11:12.484Z,56.22
2024-02-29T04:13:39.963Z,55.83
2024-02-29T04:16:07.453Z,55.97
2024-02-29T04:18:34.720Z,56.46
2024-02-29T04:21:02.232Z,54.77
2024-02-29T04:23:29.889Z,55.93
2024-02-29T04:25:57.095Z,55.66
2024-02-29T04:28:24.591Z,56.75
2024-02-29T04:30:52.190Z,55.15
2024-02-29T04:33:19.562Z,56.00
2024-02-29T04:35:46.768Z,55.89
2024-02-29T04:38:14.476Z,56.98
2024-02-29T04:40:42.307Z,56.57
2024-02-29T04:43:10.456Z,56.06
2024-02-29T04:45:38.902Z,57.38
2024-02-29T04:48:06.855Z,56.81
2024-02-29T04:50:35.115Z,56.23
2024-02-29T04:53:03.215Z,56.14
2024-02-29T04:55:32.282Z,57.10
2024-02-29T04:58:00.496Z,56.61
2024-02-29T05:00:28.176Z,56.54
2024-02-29T05:02:55.982Z,57.02
2024-02-29T05:05:23.548Z,57.17
2024-02-29T05:07:51.513Z,56.38
2024-02-29T05:10:19.536Z,56.50
2024-02-29T05:12:47.723Z,56.69
2024-02-29T05:15:15.585Z,56.22
2024-02-29T05:17:43.654Z,57.21
2024-02-29T05:20:11.448Z,58.19
2024-02-29T05:22:40.026Z,57.16
2024-02-29T05:25:07.906Z,58.05
2024-02-29T05:27:35.715Z,57.78
2024-02-29T05:30:03.493Z,56.97
2024-02-29T05:32:39.587Z,58.00
2024-02-29T05:35:13.287Z,57.05
2024-02-29T05:37:40.509Z,57.16
2024-02-29T05:40:07.708Z,56.62
2024-02-29T05:42:36.248Z,56.09
2024-02-29T05:45:03.694Z,55.65
2024-02-29T05:47:31.921Z,57.35
2024-02-29T05:49:59.874Z,56.86
2024-02-29T05:52:27.892Z,56.93
2024-02-29T05:54:55.542Z,57.45
2024-02-29T05:57:23.645Z,56.45
2024-02-29T05:59:50.889Z,55.35
2024-02-29T06:02:18.223Z,56.58
2024-02-29T06:04:48.679Z,57.60
2024-02-29T06:07:16.442Z,57.08
2024-02-29T06:09:44.609Z,57.94
2024-02-29T06:12:12.704Z,56.73
2024-02-29T06:14:40.017Z,58.19
2024-02-29T06:17:06.950Z,58.02
2024-02-29T06:19:34.282Z,58.87
2024-02-29T06:22:02.280Z,58.87
2024-02-29T06:24:29.957Z,58.17
2024-02-29T06:26:57.407Z,58.01
2024-02-29T06:29:24.904Z,58.04
2024-02-29T06:31:54.219Z,58.40
2024-02-29T06:34:24.081Z,58.79
2024-02-29T06:36:54.566Z,58.34
2024-02-29T06:39:24.802Z,58.21
2024-02-29T06:41:52.678Z,58.40
2024-02-29T06:44:20.768Z,57.69
2024-02-29T06:46:48.406Z,58.03
2024-02-29T06:49:16.069Z,57.15
2024-02-29T06:51:43.465Z,57.84
2024-02-29T06:54:11.109Z,58.57
2024-02-29T06:56:40.857Z,58.70
2024-02-29T06:59:08.276Z,58.57
2024-02-29T07:01:35.529Z,58.55
2024-02-29T07:04:03.282Z,57.22
2024-02-29T07:06:30.360Z,57.37
2024-02-29T07:08:57.977Z,57.88
2024-02-29T07:11:25.831Z,57.96
2024-02-29T07:13:53.324Z,58.80
2024-02-29T07:16:20.723Z,58.51
2024-02-29T07:18:47.933Z,57.93
2024-02-29T07:21:17.469Z,57.66
2024-02-29T07:23:47.509Z,56.81
2024-02-29T07:26:14.563Z,57.94
2024-02-29T07:28:42.325Z,57.28
2024-02-29T07:31:09.947Z,57.11
2024-02-29T07:33:40.737Z,55.28
2024-02-29T07:36:08.199Z,55.46
2024-02-29T07:38:36.863Z,56.73
2024-02-29T07:41:05.468Z,56.22
2024-02-29T07:43:32.959Z,55.64
2024-02-29T07:46:01.412Z,55.51
2024-02-29T07:48:29.926Z,55.51
2024-02-29T07:50:58.810Z,55.31
2024-02-29T07:53:26.170Z,56.48
2024-02-29T07:55:53.679Z,56.28
2024-02-29T08:01:25.243Z,56.60
2024-02-29T08:03:56.229Z,55.88
2024-02-29T08:06:25.791Z,55.00
2024-02-29T08:08:53.875Z,54.13
2024-02-29T08:11:21.511Z,54.69
2024-02-29T08:13:49.900Z,54.92
2024-02-29T08:16:18.405Z,55.27
2024-02-29T08:18:46.814Z,54.62
2024-02-29T08:21:14.146Z,54.87
2024-02-29T08:23:43.637Z,54.47
2024-02-29T08:26:24.882Z,54.26
2024-02-29T08:28:58.067Z,54.93
2024-02-29T08:31:54.177Z,54.71
2024-02-29T08:34:41.403Z,54.29
2024-02-29T08:37:08.997Z,55.52
2024-02-29T08:39:37.403Z,54.71
2024-02-29T08:42:08.194Z,54.25
2024-02-29T08:44:36.205Z,54.26
2024-02-29T08:47:04.237Z,54.74
2024-02-29T08:49:32.253Z,54.15
2024-02-29T08:52:00.368Z,54.64
2024-02-29T08:54:27.494Z,53.96
2024-02-29T08:56:54.912Z,55.60
2024-02-29T08:59:22.512Z,53.79
2024-02-29T09:01:50.832Z,53.60
2024-02-29T09:04:43.255Z,54.09
2024-02-29T09:07:11.311Z,54.68
2024-02-29T09:09:39.109Z,54.73
2024-02-29T09:12:08.006Z,55.22
2024-02-29T09:14:35.724Z,53.90
2024-02-29T09:17:03.578Z,55.13
2024-02-29T09:19:32.589Z,54.72
2024-02-29T09:22:01.415Z,54.10
2024-02-29T09:24:30.695Z,53.63
2024-02-29T09:26:58.526Z,53.57
2024-02-29T09:32:54.629Z,53.81
2024-02-29T09:35:25.971Z,54.53
2024-02-29T09:37:54.232Z,54.34
2024-02-29T09:40:25.891Z,53.06
2024-02-29T09:42:55.140Z,54.60
2024-02-29T09:45:24.991Z,54.12
2024-02-29T09:47:53.835Z,52.69
2024-02-29T09:50:23.936Z,54.07
2024-02-29T09:52:51.453Z,53.25
2024-02-29T09:55:23.501Z,54.29
2024-02-29T09:57:53.276Z,54.30
2024-02-29T10:00:22.247Z,53.21
2024-02-29T10:02:53.729Z,54.24
2024-02-29T10:05:23.064Z,53.06
2024-02-29T10:07:50.039Z,52.98
2024-02-29T10:10:17.295Z,52.42
2024-02-29T10:12:45.134Z,53.38
2024-02-29T10:15:12.628Z,53.96
2024-02-29T10:17:39.780Z,54.62
2024-02-29T10:20:07.228Z,55.13
2024-02-29T10:22:34.955Z,52.68
2024-02-29T10:25:01.954Z,53.75
2024-02-29T10:27:35.223Z,54.00
2024-02-29T10:30:02.253Z,53.52
2024-02-29T10:32:29.782Z,51.94
2024-02-29T10:34:56.975Z,52.01
2024-02-29T10:37:24.365Z,51.53
2024-02-29T10:39:51.752Z,51.61
2024-02-29T10:42:19.425Z,50.78
2024-02-29T10:44:48.132Z,51.19
2024-02-29T10:47:15.711Z,49.98
2024-02-29T10:49:43.009Z,51.44
2024-02-29T10:52:10.789Z,49.37
2024-02-29T10:54:37.890Z,48.99
2024-02-29T10:57:04.884Z,50.52
2024-02-29T10:59:32.809Z,49.49
2024-02-29T11:02:00.941Z,50.15
2024-02-29T11:04:28.713Z,50.05
2024-02-29T11:06:57.127Z,49.90
2024-02-29T11:09:27.564Z,49.70
2024-02-29T11:11:56.138Z,48.54
2024-02-29T11:14:23.620Z,47.42
2024-02-29T11:16:51.424Z,47.64
2024-02-29T11:19:19.676Z,46.97
2024-02-29T11:21:47.557Z,48.87
2024-02-29T11:24:15.321Z,49.54
2024-02-29T11:26:43.792Z,48.18
2024-02-29T11:29:11.234Z,48.10
2024-02-29T11:31:39.485Z,48.17
2024-02-29T11:34:07.173Z,46.43
2024-02-29T11:36:35.913Z,48.07
2024-02-29T11:39:06.948Z,47.12
2024-02-29T11:41:34.161Z,48.08
2024-02-29T11:44:02.128Z,49.10
2024-02-29T11:46:29.646Z,48.01
2024-02-29T11:48:59.766Z,49.06
2024-02-29T11:51:28.650Z,47.34
2024-02-29T11:53:56.306Z,47.35
2024-02-29T11:56:25.065Z,47.33
2024-02-29T11:58:54.159Z,46.50
2024-02-29T12:01:22.309Z,46.48
2024-02-29T12:03:50.577Z,47.17
2024-02-29T12:06:20.494Z,46.93
2024-02-29T12:08:48.147Z,46.12
2024-02-29T12:11:15.985Z,45.21
2024-02-29T12:13:44.739Z,46.25
2024-02-29T12:16:12.481Z,45.94
2024-02-29T12:18:41.162Z,45.61
2024-02-29T12:21:09.053Z,45.17
2024-02-29T12:23:36.760Z,45.27
2024-02-29T12:26:15.148Z,46.34
2024-02-29T12:28:42.684Z,47.49
2024-02-29T12:31:10.231Z,46.71
2024-02-29T12:33:38.024Z,45.76
2024-02-29T12:36:05.437Z,45.56
2024-02-29T12:38:32.815Z,47.05
2024-02-29T12:41:00.163Z,46.33
2024-02-29T12:43:28.437Z,45.51
2024-02-29T12:45:55.849Z,45.02
2024-02-29T12:48:23.161Z,43.81
2024-02-29T12:50:50.708Z,45.26
2024-02-29T12:53:18.090Z,44.04
2024-02-29T12:55:45.365Z,44.17
2024-02-29T12:58:12.976Z,42.70
2024-02-29T13:00:40.832Z,42.91
2024-02-29T13:03:09.030Z,43.89
2024-02-29T13:05:40.109Z,42.63
2024-02-29T13:08:07.561Z,43.21
2024-02-29T13:10:35.063Z,43.13
2024-02-29T13:13:09.332Z,42.25
2024-02-29T13:15:38.049Z,42.12
2024-02-29T13:18:05.700Z,40.86
2024-02-29T13:20:33.060Z,41.14
2024-02-29T13:23:00.423Z,41.06
2024-02-29T13:25:27.867Z,40.37
2024-02-29T13:27:55.675Z,42.96
2024-02-29T13:30:23.924Z,42.43
2024-02-29T13:32:51.463Z,42.13
2024-02-29T13:35:19.185Z,43.72
2024-02-29T13:37:48.470Z,41.04
2024-02-29T13:40:19.306Z,40.28
2024-02-29T13:42:48.463Z,40.32
2024-02-29T13:45:16.282Z,39.64
2024-02-29T13:47:43.996Z,40.02
2024-02-29T13:50:13.927Z,39.74
2024-02-29T13:52:41.834Z,40.74
2024-02-29T13:55:09.807Z,39.47
2024-02-29T13:57:38.996Z,41.70
2024-02-29T14:00:07.819Z,39.51
2024-02-29T14:02:35.606Z,40.27
2024-02-29T14:05:03.406Z,39.74
2024-02-29T14:07:31.679Z,40.63
2024-02-29T14:10:02.709Z,40.91
2024-02-29T14:12:33.290Z,40.21
2024-02-29T14:15:01.486Z,39.05
2024-02-29T14:17:32.240Z,38.52
2024-02-29T14:20:00.044Z,40.49
2024-02-29T14:22:28.163Z,39.64
2024-02-29T14:24:58.402Z,38.60
2024-02-29T14:27:27.453Z,39.39
2024-02-29T14:29:55.265Z,39.45
2024-02-29T14:32:23.831Z,39.50
2024-02-29T14:34:51.806Z,38.82
2024-02-29T14:37:19.360Z,40.60
2024-02-29T14:39:48.234Z,39.37
2024-02-29T14:42:16.837Z,40.22
2024-02-29T14:44:44.879Z,40.19
2024-02-29T14:47:13.756Z,39.37
2024-02-29T14:49:42.001Z,39.58
2024-02-29T14:52:11.101Z,39.76
2024-02-29T14:54:38.650Z,38.61
2024-02-29T14:57:18.667Z,39.85
2024-02-29T14:59:55.582Z,38.96
2024-02-29T15:02:23.766Z,38.53
2024-02-29T15:04:53.960Z,38.78
2024-02-29T15:07:31.864Z,39.13
2024-02-29T15:10:03.960Z,39.71
2024-02-29T15:12:50.135Z,40.74
2024-02-29T15:15:17.877Z,40.43
2024-02-29T15:17:45.714Z,38.32
2024-02-29T15:20:13.372Z,38.52
2024-02-29T15:22:42.838Z,39.36
2024-02-29T15:25:11.465Z,40.06
2024-02-29T15:27:39.076Z,39.25
2024-02-29T15:30:20.601Z,39.65
2024-02-29T15:32:48.590Z,39.41
2024-02-29T15:35:16.633Z,39.23
2024-02-29T15:37:44.326Z,39.15
2024-02-29T15:40:12.107Z,38.76
2024-02-29T15:42:40.008Z,38.58
2024-02-29T15:45:09.695Z,39.59
2024-02-29T15:47:37.521Z,40.06
2024-02-29T15:50:06.264Z,40.02
2024-02-29T15:52:33.706Z,39.70
2024-02-29T15:55:00.869Z,40.15
2024-02-29T15:57:28.610Z,40.64
2024-02-29T15:59:56.178Z,41.64
2024-02-29T16:02:24.907Z,41.64
2024-02-29T16:04:53.942Z,43.29
2024-02-29T16:07:21.664Z,43.45
2024-02-29T16:09:52.656Z,41.96
2024-02-29T16:12:21.819Z,43.20
2024-02-29T16:14:50.732Z,43.63
2024-02-29T16:17:20.683Z,43.99
2024-02-29T16:19:50.147Z,45.54
2024-02-29T16:22:19.695Z,45.77
2024-02-29T16:24:48.858Z,46.73
2024-02-29T16:27:18.241Z,46.28
2024-02-29T16:29:46.348Z,46.24
2024-02-29T16:32:14.091Z,45.39
2024-02-29T16:34:41.598Z,46.45
2024-02-29T16:37:19.333Z,47.14
2024-02-29T16:39:46.935Z,46.56
2024-02-29T16:42:14.190Z,46.71
2024-02-29T16:44:43.369Z,46.69
2024-02-29T16:47:15.236Z,47.59
2024-02-29T16:49:44.761Z,47.36
2024-02-29T16:52:12.152Z,47.96
2024-02-29T16:54:39.933Z,47.33
2024-02-29T16:57:08.741Z,48.04
2024-02-29T16:59:36.135Z,47.70
2024-02-29T17:02:04.287Z,47.20
2024-02-29T17:04:32.723Z,48.92
2024-02-29T17:07:00.463Z,47.65
2024-02-29T17:09:28.076Z,47.29
2024-02-29T17:11:55.119Z,47.51
2024-02-29T17:14:23.812Z,47.21
2024-02-29T17:16:53.121Z,47.94
2024-02-29T17:19:20.397Z,48.64
2024-02-29T17:21:48.310Z,49.71
2024-02-29T17:24:15.977Z,50.07
2024-02-29T17:26:43.625Z,51.52
2024-02-29T17:29:10.828Z,51.27
2024-02-29T17:31:38.601Z,52.17
2024-02-29T17:34:07.994Z,52.12
2024-02-29T17:36:40.132Z,52.09
2024-02-29T17:39:10.850Z,52.75
2024-02-29T17:41:40.854Z,52.80
2024-02-29T17:44:09.038Z,53.84
2024-02-29T17:46:37.254Z,54.28
2024-02-29T17:49:07.428Z,53.76
2024-02-29T17:51:35.102Z,54.89
2024-02-29T17:54:02.372Z,55.08
2024-02-29T17:56:29.565Z,55.12
2024-02-29T17:58:57.719Z,55.53
2024-02-29T18:01:26.127Z,55.13
2024-02-29T18:03:53.505Z,55.23
2024-02-29T18:06:25.053Z,55.90
2024-02-29T18:08:52.292Z,57.31
2024-02-29T18:11:24.674Z,56.33
2024-02-29T18:13:52.078Z,55.71
2024-02-29T18:16:28.030Z,55.71
2024-02-29T18:18:56.686Z,55.02
2024-02-29T18:21:24.392Z,53.59
2024-02-29T18:23:56.858Z,53.30
2024-02-29T18:26:24.426Z,54.40
2024-02-29T18:28:53.901Z,54.45
2024-02-29T18:31:21.532Z,53.79
2024-02-29T18:33:49.860Z,55.36
2024-02-29T18:36:20.277Z,55.75
2024-02-29T18:38:47.924Z,55.39
2024-02-29T18:41:15.406Z,55.62
2024-02-29T18:43:42.986Z,56.14
2024-02-29T18:46:18.516Z,56.11
2024-02-29T18:48:48.013Z,56.62
2024-02-29T18:51:16.351Z,55.87
2024-02-29T18:53:44.375Z,55.79
2024-02-29T18:56:13.653Z,56.28
2024-02-29T18:58:43.887Z,56.66
2024-02-29T19:01:21.026Z,56.26
2024-02-29T19:03:53.822Z,55.49
2024-02-29T19:06:27.513Z,55.89
2024-02-29T19:08:56.139Z,54.23
2024-02-29T19:11:24.895Z,54.27
2024-02-29T19:13:56.945Z,54.74
2024-02-29T19:16:27.670Z,56.35
2024-02-29T19:18:57.565Z,55.66
2024-02-29T19:21:27.264Z,58.31
2024-02-29T19:23:54.888Z,56.92
2024-02-29T19:26:28.774Z,55.55
2024-02-29T19:29:01.061Z,54.80
2024-02-29T19:31:30.463Z,53.72
2024-02-29T19:33:59.190Z,54.79
2024-02-29T19:36:29.114Z,54.27
2024-02-29T19:38:56.804Z,52.59
2024-02-29T19:41:24.759Z,52.08
2024-02-29T19:43:52.644Z,52.24
2024-02-29T19:46:20.563Z,54.01
2024-02-29T19:48:50.508Z,54.63
2024-02-29T19:51:20.912Z,52.83
2024-02-29T19:53:53.537Z,52.17
2024-02-29T19:56:23.689Z,54.63
2024-02-29T19:58:55.813Z,53.67
2024-02-29T20:01:28.141Z,54.86
2024-02-29T20:04:00.737Z,54.78
2024-02-29T20:06:31.882Z,52.29
2024-02-29T20:09:01.448Z,52.68
2024-02-29T20:11:34.546Z,53.83
2024-02-29T20:14:06.157Z,55.26
2024-02-29T20:16:39.123Z,54.20
2024-02-29T20:19:13.058Z,53.15
2024-02-29T20:21:41.890Z,52.37
2024-02-29T20:24:13.195Z,52.41
2024-02-29T20:26:44.770Z,53.56
2024-02-29T20:29:13.373Z,54.09
2024-02-29T20:31:41.286Z,54.52
2024-02-29T20:34:11.144Z,56.00
2024-02-29T20:36:39.853Z,55.25
2024-02-29T20:39:08.235Z,54.28
2024-02-29T20:41:40.298Z,56.00
2024-02-29T20:44:18.996Z,56.17
2024-02-29T20:46:54.211Z,55.30
2024-02-29T20:49:27.226Z,56.13
2024-02-29T20:51:55.581Z,54.13
2024-02-29T20:54:24.038Z,53.55
2024-02-29T20:56:52.662Z,54.27
2024-02-29T20:59:20.580Z,54.61
2024-02-29T21:01:52.817Z,55.72
2024-02-29T21:04:23.932Z,55.02
2024-02-29T21:06:54.331Z,54.33
2024-02-29T21:09:22.485Z,54.38
2024-02-29T21:11:53.122Z,55.05
2024-02-29T21:14:22.795Z,54.79
2024-02-29T21:16:50.494Z,55.35
2024-02-29T21:19:18.257Z,54.59
2024-02-29T21:21:46.183Z,54.84
2024-02-29T21:24:13.809Z,55.19
2024-02-29T21:26:41.007Z,55.66
2024-02-29T21:29:09.639Z,53.71
2024-02-29T21:31:48.095Z,53.94
2024-02-29T21:34:21.136Z,56.45
2024-02-29T21:36:49.696Z,55.14
2024-02-29T21:39:19.360Z,55.63
2024-02-29T21:41:52.525Z,56.00
2024-02-29T21:44:31.593Z,55.72
2024-02-29T21:47:01.453Z,55.94
2024-02-29T21:49:29.201Z,55.69
2024-02-29T21:51:56.727Z,56.57
2024-02-29T21:54:25.453Z,57.70
2024-02-29T21:56:53.591Z,56.71
2024-02-29T21:59:23.165Z,57.40
2024-02-29T22:01:51.905Z,56.82
2024-02-29T22:04:20.187Z,57.85
2024-02-29T22:06:48.409Z,58.02
2024-02-29T22:09:18.096Z,59.12
2024-02-29T22:11:45.691Z,59.24
2024-02-29T22:14:21.953Z,58.62
2024-02-29T22:16:51.167Z,58.99
2024-02-29T22:19:19.419Z,58.95
2024-02-29T22:21:47.081Z,58.48
2024-02-29T22:24:16.878Z,57.81
2024-02-29T22:26:45.616Z,57.71
2024-02-29T22:29:13.887Z,57.31
2024-02-29T22:31:41.793Z,58.14
2024-02-29T22:34:10.037Z,57.81
2024-02-29T22:36:37.711Z,57.69
2024-02-29T22:39:05.026Z,56.89
2024-02-29T22:41:37.927Z,57.93
2024-02-29T22:44:08.356Z,58.04
2024-02-29T22:46:36.632Z,57.77
2024-02-29T22:49:04.333Z,57.00
2024-02-29T22:51:31.879Z,56.21
2024-02-29T22:54:00.152Z,57.03
2024-02-29T22:56:27.396Z,55.93
2024-02-29T22:58:54.831Z,56.42
2024-02-29T23:01:22.634Z,58.27
2024-02-29T23:03:50.229Z,57.91
2024-02-29T23:06:17.684Z,59.05
2024-02-29T23:08:45.451Z,58.06
2024-02-29T23:11:13.183Z,58.27
2024-02-29T23:13:40.650Z,58.99
2024-02-29T23:16:07.804Z,56.85
2024-02-29T23:18:35.066Z,57.58
2024-02-29T23:21:02.584Z,58.76
2024-02-29T23:23:31.625Z,58.48
2024-02-29T23:26:06.679Z,59.85
2024-02-29T23:28:35.401Z,61.31
2024-02-29T23:31:03.461Z,58.17
2024-02-29T23:33:47.628Z,58.08
2024-02-29T23:36:20.802Z,58.29
2024-02-29T23:38:49.089Z,56.02
2024-02-29T23:41:17.129Z,56.53
2024-02-29T23:43:45.475Z,55.19
2024-02-29T23:49:07.803Z,56.99
2024-02-29T23:51:35.977Z,57.61
2024-02-29T23:54:05.940Z,58.29
2024-02-29T23:56:36.728Z,56.69
2024-02-29T23:59:05.686Z,56.32
